Wetterdaten: Woche 28.11.11 - 04.12.11 (KW48)
Datum Zeit Temp. A. Feuchte A. Luftdruck Regen Wind Richtung Taupunkt Windchill Windben
28.11.2011 00:00 10,3 C 68 % 1023,8 hPa 0,0 l/m 9,1 km/h NW 4,6 C 8,4 C 25,7 km/h
28.11.2011 01:00 9,4 C 72 % 1024,5 hPa 0,0 l/m 5,3 km/h W 4,6 C 9,4 C 18,1 km/h
28.11.2011 02:00 8,9 C 74 % 1025,5 hPa 0,0 l/m 6,3 km/h W 4,5 C 8,7 C 20,5 km/h
28.11.2011 03:00 8,6 C 75 % 1026,1 hPa 0,0 l/m 5,1 km/h W 4,4 C 8,6 C 20,1 km/h
28.11.2011 04:00 8,3 C 75 % 1026,8 hPa 0,0 l/m 5,3 km/h N-NW 4,2 C 8,3 C 18,1 km/h
28.11.2011 05:00 8,0 C 75 % 1027,2 hPa 0,0 l/m 3,3 km/h W 3,7 C 8,0 C 14,5 km/h
28.11.2011 06:00 7,5 C 76 % 1028,2 hPa 0,0 l/m 4,8 km/h NW 3,5 C 7,5 C 17,3 km/h
28.11.2011 07:00 7,2 C 76 % 1028,8 hPa 0,0 l/m 4,6 km/h NW 3,3 C 7,2 C 17,7 km/h
28.11.2011 08:00 6,9 C 77 % 1029,6 hPa 0,0 l/m 3,2 km/h NW 3,2 C 6,9 C 10,9 km/h
28.11.2011 09:00 7,7 C 76 % 1029,8 hPa 0,0 l/m 4,7 km/h N-NW 3,8 C 7,7 C 15,3 km/h
28.11.2011 10:00 8,4 C 73 % 1030,1 hPa 0,0 l/m 6,0 km/h NW 3,8 C 8,2 C 16,5 km/h
28.11.2011 11:00 9,0 C 68 % 1029,9 hPa 0,0 l/m 5,3 km/h N-NW 3,4 C 9,0 C 16,1 km/h
28.11.2011 12:00 9,7 C 66 % 1029,6 hPa 0,0 l/m 5,9 km/h N-NW 3,6 C 9,5 C 15,7 km/h
28.11.2011 13:00 9,7 C 63 % 1029,3 hPa 0,0 l/m 7,7 km/h N 3,0 C 8,7 C 17,3 km/h
28.11.2011 14:00 9,4 C 62 % 1029,2 hPa 0,0 l/m 5,0 km/h N-NW 2,5 C 9,4 C 12,1 km/h
28.11.2011 15:00 8,9 C 62 % 1029,2 hPa 0,0 l/m 0,8 km/h N-NO 2,1 C 8,9 C 4,8 km/h
28.11.2011 16:00 6,6 C 65 % 1029,4 hPa 0,0 l/m 0,0 km/h N 0,5 C 6,6 C 1,2 km/h
28.11.2011 17:00 3,7 C 75 % 1029,8 hPa 0,0 l/m 0,2 km/h N -0,2 C 3,7 C 1,6 km/h
28.11.2011 18:00 1,9 C 77 % 1030,3 hPa 0,0 l/m 0,0 km/h N -1,7 C 1,9 C 0,4 km/h
28.11.2011 19:00 0,4 C 80 % 1030,3 hPa 0,0 l/m 0,0 km/h N -2,7 C 0,4 C 0,0 km/h
28.11.2011 20:00 -0,6 C 81 % 1030,1 hPa 0,0 l/m 0,0 km/h N -3,4 C -0,6 C 0,0 km/h
28.11.2011 21:00 -1,1 C 83 % 1029,7 hPa 0,0 l/m 0,0 km/h N -3,7 C -1,1 C 0,0 km/h
28.11.2011 22:00 -1,8 C 83 % 1029,0 hPa 0,0 l/m 0,0 km/h N -4,2 C -1,8 C 0,0 km/h
28.11.2011 23:00 -2,0 C 85 % 1028,7 hPa 0,0 l/m 0,1 km/h N -4,2 C -2,0 C 2,4 km/h
29.11.2011 00:00 -2,1 C 85 % 1028,2 hPa 0,0 l/m 0,0 km/h N -4,2 C -2,1 C 1,2 km/h
29.11.2011 01:00 -2,4 C 85 % 1027,9 hPa 0,0 l/m 0,0 km/h N -4,5 C -2,4 C 0,0 km/h
29.11.2011 02:00 -2,8 C 85 % 1027,6 hPa 0,0 l/m 0,0 km/h N -5,0 C -2,8 C 0,0 km/h
29.11.2011 03:00 -3,0 C 85 % 1027,3 hPa 0,0 l/m 0,0 km/h N -5,2 C -3,0 C 0,0 km/h
29.11.2011 04:00 -2,7 C 85 % 1027,2 hPa 0,0 l/m 0,0 km/h N -5,0 C -2,7 C 0,8 km/h
29.11.2011 05:00 -2,8 C 85 % 1026,9 hPa 0,0 l/m 0,0 km/h N -5,0 C -2,8 C 0,0 km/h
29.11.2011 06:00 -3,3 C 85 % 1027,0 hPa 0,0 l/m 0,0 km/h N -5,4 C -3,3 C 0,4 km/h
29.11.2011 07:00 -2,8 C 84 % 1027,3 hPa 0,0 l/m 0,0 km/h N -5,1 C -2,8 C 1,2 km/h
29.11.2011 08:00 -1,8 C 83 % 1027,3 hPa 0,0 l/m 0,0 km/h N -4,4 C -1,8 C 1,6 km/h
29.11.2011 09:00 0,0 C 82 % 1027,3 hPa 0,0 l/m 0,1 km/h N -2,7 C 0,0 C 2,0 km/h
29.11.2011 10:00 1,6 C 82 % 1027,3 hPa 0,0 l/m 1,7 km/h N-NO -1,2 C 1,6 C 6,0 km/h
29.11.2011 11:00 2,5 C 83 % 1027,2 hPa 0,0 l/m 3,6 km/h NO -0,1 C 2,5 C 9,3 km/h
29.11.2011 12:00 3,6 C 84 % 1026,7 hPa 0,0 l/m 1,9 km/h NO 1,2 C 3,6 C 6,8 km/h
29.11.2011 13:00 4,1 C 84 % 1026,0 hPa 0,0 l/m 3,6 km/h O 1,7 C 4,1 C 10,1 km/h
29.11.2011 14:00 4,5 C 82 % 1025,6 hPa 0,0 l/m 1,9 km/h O-SO 1,7 C 4,5 C 8,0 km/h
29.11.2011 15:00 4,3 C 80 % 1026,0 hPa 0,0 l/m 2,3 km/h O 1,2 C 4,3 C 8,9 km/h
29.11.2011 16:00 2,7 C 81 % 1026,2 hPa 0,0 l/m 0,6 km/h N -0,2 C 2,7 C 3,6 km/h
29.11.2011 17:00 1,8 C 84 % 1026,3 hPa 0,0 l/m 0,4 km/h N -0,7 C 1,8 C 5,2 km/h
29.11.2011 18:00 1,5 C 85 % 1026,2 hPa 0,0 l/m 0,3 km/h N -0,7 C 1,5 C 4,0 km/h
29.11.2011 19:00 1,1 C 85 % 1026,2 hPa 0,0 l/m 0,2 km/h N -1,1 C 1,1 C 3,6 km/h
29.11.2011 20:00 0,8 C 85 % 1026,2 hPa 0,0 l/m 0,2 km/h N -1,4 C 0,8 C 3,2 km/h
29.11.2011 21:00 0,7 C 84 % 1026,3 hPa 0,0 l/m 0,3 km/h N -1,6 C 0,7 C 4,8 km/h
29.11.2011 22:00 0,4 C 84 % 1026,3 hPa 0,0 l/m 0,2 km/h N -2,0 C 0,4 C 3,6 km/h
29.11.2011 23:00 0,4 C 84 % 1026,5 hPa 0,0 l/m 0,1 km/h N -2,0 C 0,4 C 2,0 km/h
30.11.2011 00:00 0,3 C 84 % 1026,6 hPa 0,0 l/m 0,1 km/h N -2,2 C 0,3 C 2,0 km/h
30.11.2011 01:00 0,3 C 83 % 1027,0 hPa 0,0 l/m 0,0 km/h N -2,2 C 0,3 C 0,8 km/h
30.11.2011 02:00 0,3 C 83 % 1027,1 hPa 0,0 l/m 0,0 km/h N -2,2 C 0,3 C 1,2 km/h
30.11.2011 03:00 0,2 C 83 % 1027,2 hPa 0,0 l/m 0,0 km/h N -2,3 C 0,2 C 0,8 km/h
30.11.2011 04:00 0,2 C 83 % 1027,5 hPa 0,0 l/m 0,0 km/h N -2,4 C 0,2 C 0,8 km/h
30.11.2011 05:00 0,1 C 82 % 1027,7 hPa 0,0 l/m 0,0 km/h N -2,6 C 0,1 C 1,6 km/h
30.11.2011 06:00 0,1 C 82 % 1028,3 hPa 0,0 l/m 0,1 km/h N -2,6 C 0,1 C 1,2 km/h
30.11.2011 07:00 0,2 C 82 % 1028,9 hPa 0,0 l/m 0,0 km/h N -2,5 C 0,2 C 0,4 km/h
30.11.2011 08:00 0,3 C 82 % 1029,3 hPa 0,0 l/m 0,0 km/h N -2,4 C 0,3 C 0,8 km/h
30.11.2011 09:00 0,6 C 82 % 1029,5 hPa 0,0 l/m 0,0 km/h N -2,1 C 0,6 C 1,2 km/h
30.11.2011 10:00 1,2 C 81 % 1029,8 hPa 0,0 l/m 0,2 km/h N -1,7 C 1,2 C 3,2 km/h
30.11.2011 11:00 1,7 C 81 % 1029,8 hPa 0,0 l/m 0,1 km/h N -1,3 C 1,7 C 2,4 km/h
30.11.2011 12:00 2,1 C 81 % 1029,8 hPa 0,0 l/m 0,1 km/h N -0,8 C 2,1 C 3,2 km/h
30.11.2011 13:00 2,5 C 81 % 1029,6 hPa 0,3 l/m 0,1 km/h N -0,4 C 2,5 C 2,4 km/h
30.11.2011 14:00 2,6 C 82 % 1029,6 hPa 0,0 l/m 0,1 km/h N -0,2 C 2,6 C 2,0 km/h
30.11.2011 15:00 2,5 C 83 % 1029,6 hPa 0,0 l/m 0,2 km/h N -0,1 C 2,5 C 4,0 km/h
30.11.2011 16:00 2,2 C 83 % 1029,8 hPa 0,0 l/m 0,2 km/h N -0,4 C 2,2 C 2,4 km/h
30.11.2011 17:00 2,0 C 83 % 1030,1 hPa 0,0 l/m 0,0 km/h N -0,6 C 2,0 C 1,2 km/h
30.11.2011 18:00 1,8 C 83 % 1030,5 hPa 0,0 l/m 0,0 km/h N -0,8 C 1,8 C 0,4 km/h
30.11.2011 19:00 1,8 C 83 % 1030,7 hPa 0,0 l/m 0,0 km/h N -0,8 C 1,8 C 0,8 km/h
30.11.2011 20:00 1,6 C 83 % 1031,0 hPa 0,0 l/m 0,0 km/h N -0,9 C 1,6 C 0,4 km/h
30.11.2011 21:00 1,7 C 83 % 1031,1 hPa 0,0 l/m 0,0 km/h N -0,8 C 1,7 C 0,4 km/h
30.11.2011 22:00 1,9 C 83 % 1031,0 hPa 0,0 l/m 0,0 km/h N -0,7 C 1,9 C 0,8 km/h
30.11.2011 23:00 2,0 C 83 % 1030,6 hPa 0,0 l/m 0,0 km/h N -0,6 C 2,0 C 0,8 km/h
01.12.2011 00:00 2,2 C 83 % 1030,4 hPa 0,0 l/m 0,1 km/h N -0,4 C 2,2 C 1,6 km/h
01.12.2011 01:00 2,1 C 83 % 1030,2 hPa 0,0 l/m 0,0 km/h N -0,5 C 2,1 C 0,8 km/h
01.12.2011 02:00 2,0 C 83 % 1030,1 hPa 0,0 l/m 0,0 km/h N -0,6 C 2,0 C 0,4 km/h
01.12.2011 03:00 2,0 C 83 % 1029,9 hPa 0,0 l/m 0,0 km/h N -0,6 C 2,0 C 0,0 km/h
01.12.2011 04:00 2,1 C 83 % 1029,2 hPa 0,0 l/m 0,2 km/h N -0,5 C 2,1 C 2,4 km/h
01.12.2011 05:00 2,1 C 83 % 1029,0 hPa 0,0 l/m 0,1 km/h N -0,5 C 2,1 C 2,8 km/h
01.12.2011 06:00 2,1 C 83 % 1029,0 hPa 0,0 l/m 0,1 km/h N -0,5 C 2,1 C 1,6 km/h
01.12.2011 07:00 2,1 C 83 % 1028,7 hPa 0,0 l/m 0,0 km/h N -0,5 C 2,1 C 0,0 km/h
01.12.2011 08:00 2,2 C 83 % 1028,5 hPa 0,0 l/m 0,1 km/h N -0,4 C 2,2 C 2,0 km/h
01.12.2011 09:00 1,9 C 84 % 1028,5 hPa 0,0 l/m 0,4 km/h N -0,6 C 1,9 C 4,0 km/h
01.12.2011 10:00 1,3 C 84 % 1028,2 hPa 0,0 l/m 0,1 km/h N -1,1 C 1,3 C 2,0 km/h
01.12.2011 11:00 1,4 C 84 % 1027,3 hPa 0,0 l/m 0,3 km/h N -1,1 C 1,4 C 4,4 km/h
01.12.2011 12:00 1,0 C 84 % 1026,5 hPa 0,0 l/m 0,2 km/h N -1,4 C 1,0 C 4,0 km/h
01.12.2011 13:00 0,9 C 84 % 1026,0 hPa 0,0 l/m 0,3 km/h N -1,5 C 0,9 C 3,6 km/h
01.12.2011 14:00 0,9 C 84 % 1025,8 hPa 0,0 l/m 0,1 km/h N -1,5 C 0,9 C 3,2 km/h
01.12.2011 15:00 0,9 C 84 % 1025,5 hPa 0,0 l/m 0,2 km/h N -1,6 C 0,9 C 2,8 km/h
01.12.2011 16:00 0,9 C 83 % 1025,2 hPa 0,0 l/m 1,1 km/h S -1,6 C 0,9 C 8,4 km/h
01.12.2011 17:00 0,9 C 83 % 1024,8 hPa 0,0 l/m 1,0 km/h S-SO -1,7 C 0,9 C 8,0 km/h
01.12.2011 18:00 1,0 C 83 % 1024,8 hPa 0,0 l/m 0,5 km/h N -1,6 C 1,0 C 5,2 km/h
01.12.2011 19:00 1,2 C 83 % 1025,0 hPa 0,0 l/m 0,6 km/h N -1,4 C 1,2 C 6,8 km/h
01.12.2011 20:00 1,3 C 83 % 1024,6 hPa 0,0 l/m 0,2 km/h N -1,3 C 1,3 C 2,8 km/h
01.12.2011 21:00 1,3 C 83 % 1024,0 hPa 0,0 l/m 0,2 km/h S-SO -1,3 C 1,3 C 3,6 km/h
01.12.2011 22:00 1,0 C 83 % 1023,2 hPa 0,0 l/m 2,0 km/h S -1,6 C 1,0 C 13,7 km/h
01.12.2011 23:00 0,8 C 82 % 1023,0 hPa 0,0 l/m 0,5 km/h S -1,9 C 0,8 C 5,6 km/h
02.12.2011 00:00 0,5 C 82 % 1022,6 hPa 0,0 l/m 0,2 km/h N -2,2 C 0,5 C 5,2 km/h
02.12.2011 01:00 0,1 C 82 % 1022,0 hPa 0,0 l/m 0,2 km/h N -2,6 C 0,1 C 3,6 km/h
02.12.2011 02:00 -0,1 C 82 % 1021,6 hPa 0,0 l/m 0,3 km/h N -2,8 C -0,1 C 4,0 km/h
02.12.2011 03:00 -0,3 C 82 % 1021,1 hPa 0,0 l/m 0,4 km/h N -3,0 C -0,3 C 4,4 km/h
02.12.2011 04:00 -0,7 C 82 % 1020,6 hPa 0,0 l/m 0,5 km/h N -3,3 C -0,7 C 6,4 km/h
02.12.2011 05:00 -0,8 C 82 % 1020,4 hPa 0,0 l/m 0,8 km/h SO -3,5 C -0,8 C 6,0 km/h
02.12.2011 06:00 -0,9 C 82 % 1020,1 hPa 0,0 l/m 0,5 km/h N -3,6 C -0,9 C 5,2 km/h
02.12.2011 07:00 -0,9 C 82 % 1019,7 hPa 0,0 l/m 0,8 km/h O-SO -3,6 C -0,9 C 5,6 km/h
02.12.2011 08:00 -1,0 C 81 % 1019,5 hPa 0,0 l/m 1,1 km/h S-SO -3,8 C -1,0 C 6,4 km/h
02.12.2011 09:00 -0,8 C 81 % 1019,5 hPa 0,0 l/m 1,1 km/h O -3,7 C -0,8 C 7,6 km/h
02.12.2011 10:00 -0,7 C 81 % 1019,7 hPa 0,0 l/m 0,6 km/h N -3,5 C -0,7 C 6,4 km/h
02.12.2011 11:00 -0,5 C 81 % 1019,4 hPa 0,0 l/m 0,3 km/h N -3,4 C -0,5 C 4,8 km/h
02.12.2011 12:00 -0,4 C 81 % 1019,4 hPa 0,0 l/m 0,2 km/h N -3,3 C -0,4 C 4,0 km/h
02.12.2011 13:00 -0,3 C 81 % 1019,1 hPa 0,0 l/m 0,0 km/h N -3,1 C -0,3 C 1,2 km/h
02.12.2011 14:00 -0,1 C 81 % 1018,9 hPa 0,0 l/m 0,1 km/h N -3,0 C -0,1 C 1,6 km/h
02.12.2011 15:00 -0,1 C 81 % 1019,0 hPa 0,0 l/m 0,1 km/h N -3,0 C -0,1 C 2,0 km/h
02.12.2011 16:00 -0,1 C 81 % 1019,1 hPa 0,0 l/m 0,3 km/h N -2,9 C -0,1 C 4,8 km/h
02.12.2011 17:00 -0,1 C 81 % 1019,3 hPa 0,0 l/m 1,5 km/h S -3,0 C -0,1 C 8,4 km/h
02.12.2011 18:00 -0,1 C 82 % 1019,2 hPa 0,0 l/m 1,6 km/h S -2,9 C -0,1 C 8,5 km/h
02.12.2011 19:00 -0,3 C 82 % 1019,1 hPa 0,0 l/m 1,4 km/h S-SO -2,9 C -0,3 C 6,8 km/h
02.12.2011 20:00 -0,2 C 82 % 1019,3 hPa 0,0 l/m 0,6 km/h N -2,9 C -0,2 C 5,2 km/h
02.12.2011 21:00 -0,3 C 83 % 1019,4 hPa 0,0 l/m 0,3 km/h N -2,9 C -0,3 C 6,4 km/h
02.12.2011 22:00 -0,4 C 83 % 1019,6 hPa 0,0 l/m 0,1 km/h N -2,9 C -0,4 C 2,0 km/h
02.12.2011 23:00 -0,5 C 83 % 1019,8 hPa 0,0 l/m 0,0 km/h N -3,0 C -0,5 C 1,6 km/h
03.12.2011 00:00 -0,6 C 83 % 1019,9 hPa 0,0 l/m 0,0 km/h N -3,1 C -0,6 C 1,2 km/h
03.12.2011 01:00 -0,6 C 83 % 1019,8 hPa 0,0 l/m 0,0 km/h N -3,1 C -0,6 C 1,2 km/h
03.12.2011 02:00 -0,6 C 83 % 1019,9 hPa 0,0 l/m 0,0 km/h N -3,1 C -0,6 C 1,6 km/h
03.12.2011 03:00 -0,7 C 83 % 1019,6 hPa 0,0 l/m 0,1 km/h N -3,2 C -0,7 C 1,2 km/h
03.12.2011 04:00 -0,7 C 83 % 1019,6 hPa 0,0 l/m 0,0 km/h N -3,2 C -0,7 C 0,0 km/h
03.12.2011 05:00 -0,6 C 83 % 1019,5 hPa 0,0 l/m 0,0 km/h N -3,1 C -0,6 C 1,6 km/h
03.12.2011 06:00 -0,6 C 83 % 1019,5 hPa 0,0 l/m 0,2 km/h N -3,1 C -0,6 C 3,6 km/h
03.12.2011 07:00 -0,6 C 83 % 1019,7 hPa 0,0 l/m 0,0 km/h N -3,1 C -0,6 C 1,2 km/h
03.12.2011 08:00 -0,4 C 83 % 1019,9 hPa 0,0 l/m 0,0 km/h N -2,9 C -0,4 C 0,0 km/h
03.12.2011 09:00 -0,1 C 83 % 1019,9 hPa 0,0 l/m 0,4 km/h N -2,7 C -0,1 C 4,4 km/h
03.12.2011 10:00 0,6 C 82 % 1019,5 hPa 0,0 l/m 0,6 km/h N -2,1 C 0,6 C 6,8 km/h
03.12.2011 11:00 1,4 C 83 % 1018,6 hPa 0,0 l/m 1,1 km/h S-SO -1,2 C 1,4 C 7,2 km/h
03.12.2011 12:00 2,4 C 85 % 1017,8 hPa 0,0 l/m 2,3 km/h S 0,2 C 2,4 C 9,3 km/h
03.12.2011 13:00 2,7 C 86 % 1016,9 hPa 0,0 l/m 1,5 km/h S 0,5 C 2,7 C 9,3 km/h
03.12.2011 14:00 2,6 C 85 % 1016,5 hPa 0,0 l/m 0,6 km/h N 0,4 C 2,6 C 7,2 km/h
03.12.2011 15:00 2,3 C 86 % 1016,0 hPa 0,3 l/m 0,8 km/h S-SO 0,1 C 2,3 C 7,6 km/h
03.12.2011 16:00 2,1 C 85 % 1015,3 hPa 0,0 l/m 1,8 km/h S -0,2 C 2,1 C 10,9 km/h
03.12.2011 17:00 2,0 C 85 % 1015,2 hPa 0,0 l/m 0,0 km/h N -0,3 C 2,0 C 1,2 km/h
03.12.2011 18:00 2,1 C 84 % 1014,6 hPa 0,0 l/m 0,0 km/h N -0,3 C 2,1 C 0,8 km/h
03.12.2011 19:00 2,2 C 84 % 1014,3 hPa 0,0 l/m 0,4 km/h S-SW -0,3 C 2,2 C 4,8 km/h
03.12.2011 20:00 2,1 C 83 % 1013,5 hPa 0,0 l/m 0,9 km/h S-SO -0,4 C 2,1 C 5,6 km/h
03.12.2011 21:00 2,3 C 83 % 1013,3 hPa 0,0 l/m 0,5 km/h N -0,3 C 2,3 C 5,6 km/h
03.12.2011 22:00 2,3 C 83 % 1012,8 hPa 0,3 l/m 0,5 km/h S -0,3 C 2,3 C 5,2 km/h
03.12.2011 23:00 2,3 C 83 % 1012,4 hPa 0,0 l/m 0,5 km/h N -0,3 C 2,3 C 6,8 km/h
04.12.2011 00:00 2,4 C 83 % 1012,0 hPa 0,0 l/m 0,2 km/h N -0,2 C 2,4 C 2,0 km/h
04.12.2011 01:00 2,2 C 83 % 1011,8 hPa 0,0 l/m 0,1 km/h N -0,4 C 2,2 C 2,0 km/h
04.12.2011 02:00 1,8 C 83 % 1011,6 hPa 0,0 l/m 0,1 km/h N -0,8 C 1,8 C 3,2 km/h
04.12.2011 03:00 0,9 C 83 % 1010,9 hPa 0,0 l/m 0,1 km/h N -1,7 C 0,9 C 1,6 km/h
04.12.2011 04:00 0,8 C 83 % 1010,8 hPa 0,0 l/m 0,0 km/h N -1,8 C 0,8 C 0,8 km/h
04.12.2011 05:00 1,4 C 82 % 1010,6 hPa 0,0 l/m 0,0 km/h N -1,4 C 1,4 C 2,0 km/h
04.12.2011 06:00 1,5 C 82 % 1010,7 hPa 0,0 l/m 0,0 km/h N -1,3 C 1,5 C 0,8 km/h
04.12.2011 07:00 1,5 C 82 % 1010,6 hPa 0,0 l/m 0,2 km/h N -1,2 C 1,5 C 3,2 km/h
04.12.2011 08:00 1,8 C 81 % 1010,4 hPa 0,0 l/m 0,4 km/h N -1,1 C 1,8 C 5,6 km/h
04.12.2011 09:00 2,4 C 81 % 1010,4 hPa 0,0 l/m 0,4 km/h N -0,5 C 2,4 C 4,4 km/h
04.12.2011 10:00 3,0 C 81 % 1009,8 hPa 0,0 l/m 0,3 km/h N 0,0 C 3,0 C 4,0 km/h
04.12.2011 11:00 4,2 C 80 % 1009,1 hPa 0,0 l/m 0,5 km/h N 1,0 C 4,2 C 5,6 km/h
04.12.2011 12:00 5,6 C 79 % 1008,3 hPa 0,0 l/m 0,1 km/h N 2,3 C 5,6 C 2,4 km/h
04.12.2011 13:00 6,8 C 80 % 1007,5 hPa 0,0 l/m 0,1 km/h N 3,5 C 6,8 C 1,2 km/h
04.12.2011 14:00 7,1 C 81 % 1007,0 hPa 0,0 l/m 0,2 km/h N 4,0 C 7,1 C 2,4 km/h
04.12.2011 15:00 7,8 C 81 % 1007,0 hPa 0,0 l/m 0,3 km/h N 4,8 C 7,8 C 5,2 km/h
04.12.2011 16:00 8,1 C 84 % 1006,9 hPa 0,0 l/m 0,1 km/h N 5,5 C 8,1 C 2,4 km/h
04.12.2011 17:00 6,8 C 85 % 1006,8 hPa 0,0 l/m 0,1 km/h N 4,5 C 6,8 C 2,0 km/h
04.12.2011 18:00 5,8 C 85 % 1006,3 hPa 0,0 l/m 0,0 km/h N 3,5 C 5,8 C 1,6 km/h
04.12.2011 19:00 5,6 C 84 % 1005,9 hPa 0,0 l/m 0,0 km/h N 3,1 C 5,6 C 1,6 km/h
04.12.2011 20:00 5,8 C 83 % 1005,0 hPa 0,0 l/m 0,0 km/h N 3,2 C 5,8 C 2,0 km/h
04.12.2011 21:00 6,5 C 83 % 1004,4 hPa 0,0 l/m 0,0 km/h N 3,9 C 6,5 C 1,2 km/h
04.12.2011 22:00 6,6 C 84 % 1003,7 hPa 0,0 l/m 0,1 km/h N 4,0 C 6,6 C 2,8 km/h
04.12.2011 23:00 6,3 C 84 % 1002,2 hPa 0,0 l/m 0,2 km/h N 3,8 C 6,3 C 2,0 km/h
Min-Datum _ 29.11.11 28.11.11 04.12.11 - 28.11.11 - 29.11.11 29.11.11 28.11.11
_ Min-Zeit 06:15 14:00 23:45 - 16:00 - 07:00 06:30 16:30
Minimum _ -3,3 C 62 % 1001,7 hPa - 0,0 km/h - -5,5 C -3,3 C 0,0 km/h
Max-Datum _ 28.11.11 03.12.11 30.11.11 30.11.11 28.11.11 - 04.12.11 28.11.11 28.11.11
_ Max-Zeit 00:00 12:45 21:15 13:30 00:15 - 16:15 01:00 00:15
Maximum _ 10,8 C 86 % 1031,2 hPa 0,3 l/m 10,1 km/h
NW
- 5,7 C 9,7 C 29,0 km/h
W
Durchschnitt _ 2,0 C 82 % 1022,4 hPa #0,8 l/m 0,8 km/h NW -0,9 C 2,0 C 4,5 km/h